createdAt,value
2023-03-28T00:00:11.518Z,0.50
2023-03-28T00:02:38.476Z,0.50
2023-03-28T00:05:05.624Z,0.40
2023-03-28T00:07:32.359Z,0.40
2023-03-28T00:09:58.960Z,0.40
2023-03-28T00:12:25.719Z,0.40
2023-03-28T00:14:52.352Z,0.40
2023-03-28T00:17:18.992Z,0.40
2023-03-28T00:19:46.900Z,0.40
2023-03-28T00:22:14.004Z,0.40
2023-03-28T00:24:40.649Z,0.40
2023-03-28T00:27:07.832Z,0.40
2023-03-28T00:29:34.755Z,0.30
2023-03-28T00:32:01.421Z,0.40
2023-03-28T00:34:28.075Z,0.30
2023-03-28T00:36:55.194Z,0.30
2023-03-28T00:39:21.878Z,0.30
2023-03-28T00:41:49.285Z,0.30
2023-03-28T00:44:45.604Z,0.30
2023-03-28T00:47:26.731Z,0.20
2023-03-28T00:50:05.463Z,0.30
2023-03-28T00:52:39.920Z,0.20
2023-03-28T00:55:12.316Z,0.20
2023-03-28T00:57:40.077Z,0.20
2023-03-28T01:00:12.842Z,0.20
2023-03-28T01:02:45.567Z,0.10
2023-03-28T01:05:13.550Z,0.10
2023-03-28T01:07:46.103Z,0.10
2023-03-28T01:10:13.388Z,0.00
2023-03-28T01:12:42.091Z,0.00
2023-03-28T01:15:09.968Z,0.00
2023-03-28T01:17:36.860Z,0.00
2023-03-28T01:20:18.397Z,0.00
2023-03-28T01:23:20.854Z,0.00
2023-03-28T01:26:01.143Z,0.00
2023-03-28T01:28:37.065Z,0.00
2023-03-28T01:31:28.689Z,0.00
2023-03-28T01:34:38.326Z,-0.10
2023-03-28T01:37:32.576Z,-0.10
2023-03-28T01:40:31.838Z,-0.10
2023-03-28T01:43:01.470Z,-0.10
2023-03-28T01:45:40.110Z,-0.20
2023-03-28T01:48:14.371Z,-0.20
2023-03-28T01:50:53.935Z,-0.20
2023-03-28T01:53:23.403Z,-0.20
2023-03-28T01:56:10.173Z,-0.20
2023-03-28T01:58:52.717Z,-0.20
2023-03-28T02:01:36.822Z,-0.20
2023-03-28T02:04:20.586Z,-0.30
2023-03-28T02:06:50.455Z,-0.30
2023-03-28T02:09:20.819Z,-0.30
2023-03-28T02:11:52.099Z,-0.30
2023-03-28T02:14:23.661Z,-0.30
2023-03-28T02:16:57.371Z,-0.30
2023-03-28T02:19:24.990Z,-0.30
2023-03-28T02:22:19.351Z,-0.30
2023-03-28T02:24:50.500Z,-0.30
2023-03-28T02:27:18.551Z,-0.30
2023-03-28T02:29:45.560Z,-0.30
2023-03-28T02:32:12.266Z,-0.30
2023-03-28T02:34:38.897Z,-0.30
2023-03-28T02:37:19.549Z,-0.30
2023-03-28T02:40:07.412Z,-0.40
2023-03-28T02:42:55.613Z,-0.40
2023-03-28T02:45:26.492Z,-0.40
2023-03-28T02:48:29.993Z,-0.40
2023-03-28T02:51:22.620Z,-0.40
2023-03-28T02:54:03.109Z,-0.40
2023-03-28T02:56:41.280Z,-0.50
2023-03-28T02:59:34.310Z,-0.50
2023-03-28T03:02:02.956Z,-0.50
2023-03-28T03:04:29.609Z,-0.50
2023-03-28T03:06:56.418Z,-0.50
2023-03-28T03:09:23.135Z,-0.50
2023-03-28T03:11:50.623Z,-0.50
2023-03-28T03:14:17.397Z,-0.50
2023-03-28T03:16:44.171Z,-0.50
2023-03-28T03:19:11.037Z,-0.50
2023-03-28T03:21:37.693Z,-0.50
2023-03-28T03:24:04.694Z,-0.50
2023-03-28T03:26:31.393Z,-0.50
2023-03-28T03:28:58.145Z,-0.50
2023-03-28T03:31:25.249Z,-0.50
2023-03-28T03:33:51.912Z,-0.50
2023-03-28T03:36:18.829Z,-0.50
2023-03-28T03:38:45.747Z,-0.50
2023-03-28T03:41:12.480Z,-0.50
2023-03-28T03:43:39.278Z,-0.50
2023-03-28T03:46:06.293Z,-0.50
2023-03-28T03:48:33.086Z,-0.50
2023-03-28T03:50:59.772Z,-0.50
2023-03-28T03:53:26.438Z,-0.50
2023-03-28T03:55:53.156Z,-0.50
2023-03-28T03:58:20.470Z,-0.50
2023-03-28T04:00:48.903Z,-0.50
2023-03-28T04:03:25.102Z,-0.50
2023-03-28T04:05:54.886Z,-0.50
2023-03-28T04:08:21.700Z,-0.50
2023-03-28T04:10:48.361Z,-0.50
2023-03-28T04:13:15.071Z,-0.60
2023-03-28T04:15:41.746Z,-0.60
2023-03-28T04:18:09.864Z,-0.50
2023-03-28T04:20:36.768Z,-0.50
2023-03-28T04:23:05.676Z,-0.50
2023-03-28T04:25:32.929Z,-0.60
2023-03-28T04:28:01.851Z,-0.60
2023-03-28T04:30:28.571Z,-0.60
2023-03-28T04:32:55.253Z,-0.70
2023-03-28T04:35:23.577Z,-0.70
2023-03-28T04:37:50.485Z,-0.70
2023-03-28T04:40:17.692Z,-0.70
2023-03-28T04:42:44.566Z,-0.80
2023-03-28T04:45:11.582Z,-0.80
2023-03-28T04:47:39.969Z,-0.80
2023-03-28T04:50:10.939Z,-0.80
2023-03-28T04:52:37.599Z,-0.90
2023-03-28T04:55:05.143Z,-0.90
2023-03-28T04:57:37.039Z,-0.90
2023-03-28T05:00:09.276Z,-0.90
2023-03-28T05:02:35.980Z,-0.80
2023-03-28T05:05:02.872Z,-0.90
2023-03-28T05:07:29.538Z,-0.90
2023-03-28T05:09:56.474Z,-0.90
2023-03-28T05:12:23.244Z,-0.90
2023-03-28T05:14:49.871Z,-0.90
2023-03-28T05:17:16.500Z,-0.90
2023-03-28T05:19:43.146Z,-0.80
2023-03-28T05:22:12.228Z,-0.80
2023-03-28T05:24:38.935Z,-0.80
2023-03-28T05:27:05.594Z,-0.80
2023-03-28T05:29:32.256Z,-0.80
2023-03-28T05:31:58.985Z,-0.80
2023-03-28T05:34:25.872Z,-0.80
2023-03-28T05:36:52.577Z,-0.70
2023-03-28T05:39:19.248Z,-0.70
2023-03-28T05:41:46.060Z,-0.70
2023-03-28T05:44:12.670Z,-0.70
2023-03-28T05:46:42.050Z,-0.60
2023-03-28T05:49:08.782Z,-0.60
2023-03-28T05:51:39.269Z,-0.50
2023-03-28T05:54:06.261Z,-0.30
2023-03-28T05:56:35.665Z,-0.20
2023-03-28T05:59:02.474Z,-0.20
2023-03-28T06:01:31.310Z,0.00
2023-03-28T06:03:59.947Z,0.10
2023-03-28T06:06:28.092Z,0.20
2023-03-28T06:08:54.728Z,0.30
2023-03-28T06:11:22.516Z,0.60
2023-03-28T06:13:49.291Z,0.70
2023-03-28T06:16:16.005Z,1.00
2023-03-28T06:18:42.666Z,1.10
2023-03-28T06:21:09.363Z,1.20
2023-03-28T06:23:36.024Z,1.40
2023-03-28T06:26:03.375Z,1.50
2023-03-28T06:28:30.152Z,1.40
2023-03-28T06:30:56.929Z,1.60
2023-03-28T06:33:23.675Z,1.70
2023-03-28T06:35:51.386Z,1.90
2023-03-28T06:38:18.241Z,2.10
2023-03-28T06:40:45.455Z,1.90
2023-03-28T06:43:12.165Z,2.00
2023-03-28T06:45:40.278Z,2.30
2023-03-28T06:48:07.538Z,2.30
2023-03-28T06:50:36.475Z,2.30
2023-03-28T06:53:03.372Z,2.60
2023-03-28T06:55:30.172Z,2.90
2023-03-28T06:57:56.804Z,2.80
2023-03-28T07:00:23.652Z,2.90
2023-03-28T07:02:54.175Z,3.30
2023-03-28T07:05:20.940Z,3.20
2023-03-28T07:07:47.778Z,3.30
2023-03-28T07:10:14.428Z,3.50
2023-03-28T07:12:44.048Z,3.90
2023-03-28T07:15:11.469Z,4.30
2023-03-28T07:17:40.347Z,3.40
2023-03-28T07:20:08.457Z,3.40
2023-03-28T07:22:35.359Z,4.00
2023-03-28T07:25:02.051Z,4.30
2023-03-28T07:27:29.153Z,4.40
2023-03-28T07:29:55.889Z,4.40
2023-03-28T07:32:22.626Z,4.70
2023-03-28T07:34:52.990Z,4.60
2023-03-28T07:37:20.406Z,4.50
2023-03-28T07:39:48.478Z,4.20
2023-03-28T07:42:15.908Z,3.90
2023-03-28T07:44:42.885Z,4.10
2023-03-28T07:47:11.866Z,4.20
2023-03-28T07:49:41.365Z,4.40
2023-03-28T07:52:09.515Z,4.80
2023-03-28T07:54:36.678Z,5.20
2023-03-28T07:57:04.257Z,5.20
2023-03-28T07:59:31.169Z,5.20
2023-03-28T08:01:59.947Z,4.90
2023-03-28T08:04:26.992Z,4.40
2023-03-28T08:06:53.646Z,3.70
2023-03-28T08:09:22.845Z,3.30
2023-03-28T08:11:49.588Z,3.00
2023-03-28T08:14:17.838Z,2.90
2023-03-28T08:16:46.774Z,3.10
2023-03-28T08:19:13.950Z,2.90
2023-03-28T08:21:41.042Z,2.80
2023-03-28T08:24:10.403Z,3.40
2023-03-28T08:26:38.414Z,3.70
2023-03-28T08:29:06.223Z,3.90
2023-03-28T08:31:33.210Z,4.50
2023-03-28T08:33:59.872Z,5.30
2023-03-28T08:36:27.919Z,5.50
2023-03-28T08:39:01.070Z,5.40
2023-03-28T08:41:48.717Z,6.00
2023-03-28T08:45:09.530Z,6.10
2023-03-28T08:47:55.731Z,5.60
2023-03-28T08:50:36.684Z,5.40
2023-03-28T08:53:03.854Z,5.20
2023-03-28T08:55:43.913Z,5.40
2023-03-28T08:58:19.677Z,5.30
2023-03-28T09:00:47.499Z,5.30
2023-03-28T09:03:18.194Z,5.70
2023-03-28T09:05:52.055Z,6.10
2023-03-28T09:08:41.011Z,6.30
2023-03-28T09:11:28.816Z,6.10
2023-03-28T09:14:20.331Z,6.10
2023-03-28T09:17:18.728Z,6.30
2023-03-28T09:20:16.503Z,6.60
2023-03-28T09:23:03.976Z,6.60
2023-03-28T09:25:40.313Z,6.50
2023-03-28T09:28:22.202Z,6.30
2023-03-28T09:30:51.740Z,6.10
2023-03-28T09:33:35.905Z,5.70
2023-03-28T09:36:10.418Z,5.40
2023-03-28T09:38:43.296Z,5.60
2023-03-28T09:41:26.050Z,6.20
2023-03-28T09:43:59.315Z,6.70
2023-03-28T09:46:39.650Z,6.30
2023-03-28T09:49:06.721Z,6.30
2023-03-28T09:51:33.389Z,5.40
2023-03-28T09:54:07.549Z,5.40
2023-03-28T09:56:38.280Z,5.90
2023-03-28T09:59:11.056Z,6.30
2023-03-28T10:01:44.526Z,6.90
2023-03-28T10:04:31.025Z,7.00
2023-03-28T10:07:19.664Z,6.80
2023-03-28T10:09:51.384Z,5.80
2023-03-28T10:12:23.032Z,5.30
2023-03-28T10:14:50.084Z,5.00
2023-03-28T10:17:18.790Z,5.00
2023-03-28T10:19:47.357Z,5.50
2023-03-28T10:22:24.822Z,6.00
2023-03-28T10:24:52.304Z,5.80
2023-03-28T10:27:24.705Z,5.80
2023-03-28T10:29:53.465Z,5.60
2023-03-28T10:32:31.334Z,5.50
2023-03-28T10:35:03.939Z,5.30
2023-03-28T10:37:34.882Z,5.10
2023-03-28T10:40:16.248Z,5.10
2023-03-28T10:42:45.166Z,5.40
2023-03-28T10:45:33.512Z,5.90
2023-03-28T10:48:04.547Z,6.50
2023-03-28T10:50:41.885Z,6.50
2023-03-28T10:53:29.785Z,6.40
2023-03-28T10:56:21.982Z,6.40
2023-03-28T10:59:10.405Z,6.40
2023-03-28T11:01:58.991Z,6.90
2023-03-28T11:04:49.010Z,7.40
2023-03-28T11:07:49.617Z,7.20
2023-03-28T11:10:35.039Z,7.00
2023-03-28T11:13:04.212Z,6.60
2023-03-28T11:15:46.966Z,6.80
2023-03-28T11:18:48.981Z,6.90
2023-03-28T11:21:42.361Z,7.00
2023-03-28T11:24:36.440Z,6.40
2023-03-28T11:27:19.179Z,6.10
2023-03-28T11:29:55.851Z,5.80
2023-03-28T11:32:50.393Z,5.60
2023-03-28T11:35:28.942Z,5.70
2023-03-28T11:38:09.324Z,6.00
2023-03-28T11:40:59.281Z,6.10
2023-03-28T11:43:34.107Z,6.30
2023-03-28T11:46:32.724Z,5.90
2023-03-28T11:49:20.269Z,6.00
2023-03-28T11:52:05.127Z,6.00
2023-03-28T11:54:39.010Z,6.20
2023-03-28T11:57:25.338Z,6.40
2023-03-28T12:00:41.682Z,6.10
2023-03-28T12:03:31.590Z,6.00
2023-03-28T12:06:09.000Z,6.40
2023-03-28T12:08:51.008Z,6.60
2023-03-28T12:12:02.136Z,6.70
2023-03-28T12:14:53.603Z,7.30
2023-03-28T12:17:35.116Z,7.80
2023-03-28T12:20:01.990Z,8.20
2023-03-28T12:22:52.749Z,7.90
2023-03-28T12:25:26.164Z,7.90
2023-03-28T12:28:12.703Z,7.80
2023-03-28T12:30:51.129Z,7.80
2023-03-28T12:33:47.648Z,7.40
2023-03-28T12:36:24.253Z,7.60
2023-03-28T12:38:55.890Z,7.20
2023-03-28T12:41:31.302Z,6.80
2023-03-28T12:44:13.126Z,6.90
2023-03-28T12:46:46.621Z,6.80
2023-03-28T12:49:36.080Z,7.10
2023-03-28T12:52:06.409Z,7.10
2023-03-28T12:54:34.865Z,7.10
2023-03-28T12:57:44.791Z,7.20
2023-03-28T13:00:26.569Z,7.10
2023-03-28T13:03:18.268Z,7.00
2023-03-28T13:05:54.129Z,7.00
2023-03-28T13:08:29.782Z,7.00
2023-03-28T13:11:06.525Z,6.90
2023-03-28T13:13:53.325Z,7.00
2023-03-28T13:16:42.804Z,7.00
2023-03-28T13:19:11.388Z,7.20
2023-03-28T13:22:01.876Z,7.20
2023-03-28T13:24:31.067Z,7.00
2023-03-28T13:27:13.514Z,7.10
2023-03-28T13:29:53.697Z,7.20
2023-03-28T13:32:26.958Z,7.20
2023-03-28T13:35:00.292Z,7.00
2023-03-28T13:37:37.938Z,7.10
2023-03-28T13:40:07.458Z,7.00
2023-03-28T13:42:34.912Z,6.80
2023-03-28T13:45:19.892Z,6.90
2023-03-28T13:47:50.210Z,7.00
2023-03-28T13:50:30.943Z,7.10
2023-03-28T13:52:59.219Z,7.20
2023-03-28T13:55:28.643Z,7.30
2023-03-28T13:57:55.551Z,7.40
2023-03-28T14:00:29.071Z,7.50
2023-03-28T14:03:11.457Z,7.40
2023-03-28T14:05:44.523Z,7.40
2023-03-28T14:08:14.258Z,7.40
2023-03-28T14:10:43.338Z,7.50
2023-03-28T14:13:17.025Z,7.40
2023-03-28T14:15:45.241Z,7.60
2023-03-28T14:18:35.676Z,7.80
2023-03-28T14:21:07.797Z,8.00
2023-03-28T14:23:38.995Z,7.80
2023-03-28T14:26:12.487Z,7.90
2023-03-28T14:28:44.444Z,7.90
2023-03-28T14:31:27.176Z,7.90
2023-03-28T14:33:54.043Z,7.90
2023-03-28T14:36:21.047Z,8.00
2023-03-28T14:38:47.872Z,7.90
2023-03-28T14:41:21.098Z,8.00
2023-03-28T14:43:54.029Z,8.00
2023-03-28T14:46:29.965Z,8.10
2023-03-28T14:49:01.798Z,8.30
2023-03-28T14:51:28.570Z,8.20
2023-03-28T14:53:57.108Z,8.00
2023-03-28T14:56:27.372Z,7.90
2023-03-28T14:58:59.345Z,8.00
2023-03-28T15:01:27.095Z,8.10
2023-03-28T15:04:00.546Z,8.00
2023-03-28T15:06:29.319Z,8.10
2023-03-28T15:08:59.903Z,8.20
2023-03-28T15:11:35.493Z,8.10
2023-03-28T15:14:06.434Z,8.10
2023-03-28T15:16:36.889Z,8.20
2023-03-28T15:19:10.723Z,8.30
2023-03-28T15:21:40.268Z,8.10
2023-03-28T15:24:11.626Z,8.00
2023-03-28T15:26:47.564Z,8.20
2023-03-28T15:29:22.161Z,7.90
2023-03-28T15:31:49.186Z,8.00
2023-03-28T15:34:29.262Z,8.00
2023-03-28T15:37:05.079Z,8.00
2023-03-28T15:39:33.384Z,8.00
2023-03-28T15:42:26.954Z,8.00
2023-03-28T15:44:59.583Z,8.00
2023-03-28T15:47:30.046Z,8.00
2023-03-28T15:50:05.687Z,8.00
2023-03-28T15:52:34.240Z,8.00
2023-03-28T15:55:04.864Z,8.10
2023-03-28T15:57:32.003Z,8.20
2023-03-28T16:00:00.779Z,8.20
2023-03-28T16:02:27.779Z,8.10
2023-03-28T16:05:03.857Z,8.10
2023-03-28T16:07:43.805Z,8.10
2023-03-28T16:10:10.878Z,7.90
2023-03-28T16:12:38.053Z,7.80
2023-03-28T16:15:06.039Z,7.70
2023-03-28T16:17:33.098Z,7.70
2023-03-28T16:19:59.900Z,7.60
2023-03-28T16:22:26.737Z,7.50
2023-03-28T16:24:54.489Z,7.50
2023-03-28T16:27:22.040Z,7.50
2023-03-28T16:29:48.769Z,7.50
2023-03-28T16:32:16.495Z,7.60
2023-03-28T16:34:44.080Z,7.50
2023-03-28T16:37:11.409Z,7.50
2023-03-28T16:39:38.816Z,7.50
2023-03-28T16:42:07.882Z,7.50
2023-03-28T16:44:34.969Z,7.40
2023-03-28T16:47:02.461Z,7.30
2023-03-28T16:49:29.697Z,7.20
2023-03-28T16:51:56.616Z,7.20
2023-03-28T16:54:24.112Z,7.20
2023-03-28T16:56:51.164Z,7.10
2023-03-28T16:59:18.031Z,7.10
2023-03-28T17:01:46.350Z,7.10
2023-03-28T17:04:13.186Z,7.00
2023-03-28T17:06:39.902Z,7.00
2023-03-28T17:09:07.227Z,6.90
2023-03-28T17:11:34.393Z,6.90
2023-03-28T17:14:01.385Z,6.90
2023-03-28T17:16:28.208Z,6.80
2023-03-28T17:18:55.192Z,6.80
2023-03-28T17:21:23.050Z,6.70
2023-03-28T17:23:50.970Z,6.70
2023-03-28T17:26:18.366Z,6.60
2023-03-28T17:28:45.769Z,6.50
2023-03-28T17:31:15.739Z,6.50
2023-03-28T17:33:43.445Z,6.40
2023-03-28T17:36:23.055Z,6.40
2023-03-28T17:38:51.405Z,6.30
2023-03-28T17:41:19.090Z,6.30
2023-03-28T17:43:45.816Z,6.20
2023-03-28T17:46:12.921Z,6.10
2023-03-28T17:48:40.659Z,6.00
2023-03-28T17:51:09.661Z,5.90
2023-03-28T17:53:38.597Z,5.80
2023-03-28T17:56:09.273Z,5.80
2023-03-28T17:58:37.582Z,5.70
2023-03-28T18:01:12.341Z,5.70
2023-03-28T18:03:39.444Z,5.60
2023-03-28T18:06:09.529Z,5.70
2023-03-28T18:08:36.288Z,5.70
2023-03-28T18:11:07.399Z,5.60
2023-03-28T18:13:35.829Z,5.50
2023-03-28T18:16:06.108Z,5.50
2023-03-28T18:18:34.258Z,5.40
2023-03-28T18:21:00.987Z,5.30
2023-03-28T18:23:28.143Z,5.30
2023-03-28T18:25:54.837Z,5.30
2023-03-28T18:28:23.460Z,5.30
2023-03-28T18:30:51.183Z,5.20
2023-03-28T18:33:18.821Z,5.20
2023-03-28T18:35:47.444Z,5.10
2023-03-28T18:38:14.553Z,5.00
2023-03-28T18:40:41.953Z,5.00
2023-03-28T18:43:09.632Z,5.00
2023-03-28T18:45:36.717Z,4.90
2023-03-28T18:48:04.686Z,4.80
2023-03-28T18:50:31.420Z,4.90
2023-03-28T18:52:58.318Z,4.90
2023-03-28T18:55:25.545Z,4.90
2023-03-28T18:57:52.749Z,4.90
2023-03-28T19:00:20.362Z,4.80
2023-03-28T19:02:49.621Z,4.90
2023-03-28T19:05:17.164Z,4.80
2023-03-28T19:07:44.892Z,4.80
2023-03-28T19:10:13.331Z,4.70
2023-03-28T19:12:41.228Z,4.70
2023-03-28T19:15:10.530Z,4.70
2023-03-28T19:17:39.913Z,4.70
2023-03-28T19:20:07.888Z,4.70
2023-03-28T19:22:36.559Z,4.70
2023-03-28T19:25:03.378Z,4.70
2023-03-28T19:27:31.100Z,4.80
2023-03-28T19:29:57.750Z,4.70
2023-03-28T19:32:24.727Z,4.70
2023-03-28T19:34:51.623Z,4.70
2023-03-28T19:37:19.164Z,4.70
2023-03-28T19:39:45.832Z,4.60
2023-03-28T19:42:12.490Z,4.60
2023-03-28T19:44:39.370Z,4.50
2023-03-28T19:47:08.845Z,4.30
2023-03-28T19:49:37.361Z,4.20
2023-03-28T19:52:05.169Z,4.20
2023-03-28T19:54:32.306Z,4.20
2023-03-28T19:57:00.766Z,4.10
2023-03-28T19:59:27.572Z,4.20
2023-03-28T20:01:54.277Z,4.20
2023-03-28T20:04:21.326Z,4.20
2023-03-28T20:06:51.342Z,4.20
2023-03-28T20:09:18.011Z,4.20
2023-03-28T20:11:44.653Z,4.20
2023-03-28T20:14:11.395Z,4.30
2023-03-28T20:16:38.337Z,4.20
2023-03-28T20:19:06.058Z,4.20
2023-03-28T20:21:32.703Z,4.20
2023-03-28T20:24:00.532Z,4.30
2023-03-28T20:26:27.562Z,4.30
2023-03-28T20:28:56.682Z,4.40
2023-03-28T20:31:23.592Z,4.30
2023-03-28T20:33:52.994Z,4.40
2023-03-28T20:36:19.675Z,4.30
2023-03-28T20:38:46.566Z,4.30
2023-03-28T20:41:15.401Z,4.20
2023-03-28T20:43:47.230Z,4.20
2023-03-28T20:46:19.874Z,4.20
2023-03-28T20:48:52.409Z,4.20
2023-03-28T20:51:22.866Z,4.20
2023-03-28T20:53:54.500Z,4.30
2023-03-28T20:56:21.985Z,4.30
2023-03-28T20:58:50.618Z,4.30
2023-03-28T21:01:25.178Z,4.30
2023-03-28T21:03:54.459Z,4.20
2023-03-28T21:06:25.392Z,4.10
2023-03-28T21:08:54.153Z,4.10
2023-03-28T21:11:24.876Z,4.10
2023-03-28T21:13:51.936Z,4.10
2023-03-28T21:16:21.891Z,4.10
2023-03-28T21:18:49.513Z,4.10
2023-03-28T21:21:17.902Z,4.10
2023-03-28T21:23:45.814Z,4.10
2023-03-28T21:26:15.631Z,4.10
2023-03-28T21:28:42.283Z,4.10
2023-03-28T21:31:13.436Z,4.10
2023-03-28T21:33:42.607Z,4.10
2023-03-28T21:36:12.111Z,4.10
2023-03-28T21:38:39.836Z,4.10
2023-03-28T21:41:07.427Z,4.10
2023-03-28T21:43:34.799Z,4.10
2023-03-28T21:46:02.588Z,4.00
2023-03-28T21:48:29.604Z,4.10
2023-03-28T21:51:00.904Z,4.20
2023-03-28T21:53:31.271Z,4.20
2023-03-28T21:55:59.429Z,4.20
2023-03-28T21:58:29.294Z,4.10
2023-03-28T22:00:56.273Z,4.20
2023-03-28T22:03:23.940Z,4.20
2023-03-28T22:05:52.348Z,4.20
2023-03-28T22:08:19.862Z,4.20
2023-03-28T22:10:54.830Z,4.20
2023-03-28T22:13:23.746Z,4.20
2023-03-28T22:15:52.479Z,4.20
2023-03-28T22:18:19.891Z,4.20
2023-03-28T22:20:52.946Z,4.20
2023-03-28T22:23:20.776Z,4.20
2023-03-28T22:25:47.434Z,4.20
2023-03-28T22:28:14.693Z,4.20
2023-03-28T22:30:41.872Z,4.20
2023-03-28T22:33:12.303Z,4.20
2023-03-28T22:35:39.332Z,4.20
2023-03-28T22:38:06.770Z,4.20
2023-03-28T22:40:33.909Z,4.30
2023-03-28T22:43:00.717Z,4.30
2023-03-28T22:45:27.919Z,4.30
2023-03-28T22:47:58.272Z,4.30
2023-03-28T22:50:25.878Z,4.30
2023-03-28T22:52:52.991Z,4.30
2023-03-28T22:55:24.373Z,4.30
2023-03-28T22:57:52.483Z,4.30
2023-03-28T23:00:23.525Z,4.30
2023-03-28T23:02:51.751Z,4.40
2023-03-28T23:05:19.374Z,4.30
2023-03-28T23:07:46.114Z,4.20
2023-03-28T23:10:15.586Z,4.20
2023-03-28T23:12:43.434Z,4.20
2023-03-28T23:15:10.804Z,4.20
2023-03-28T23:17:38.104Z,4.30
2023-03-28T23:20:12.503Z,4.30
2023-03-28T23:22:40.975Z,4.40
2023-03-28T23:25:08.387Z,4.30
2023-03-28T23:27:35.309Z,4.30
2023-03-28T23:30:02.299Z,4.40
2023-03-28T23:32:29.094Z,4.50
2023-03-28T23:34:55.867Z,4.50
2023-03-28T23:37:26.043Z,4.40
2023-03-28T23:39:56.376Z,4.40
2023-03-28T23:42:24.650Z,4.40
2023-03-28T23:44:51.993Z,4.40
2023-03-28T23:47:20.323Z,4.40
2023-03-28T23:49:47.378Z,4.50
2023-03-28T23:52:14.042Z,4.50
2023-03-28T23:54:40.718Z,4.60
2023-03-28T23:57:08.033Z,4.60
2023-03-28T23:59:35.447Z,4.60
